sensor_id;sensor_type;location;lat;lon;timestamp;P1;durP1;ratioP1;P2;durP2;ratioP2
63906;SDS011;50075;49.484;11.238;2022-11-20T00:01:37;51.80;;;15.27;;
63906;SDS011;50075;49.484;11.238;2022-11-20T00:04:02;54.45;;;16.58;;
63906;SDS011;50075;49.484;11.238;2022-11-20T00:06:28;46.72;;;15.85;;
63906;SDS011;50075;49.484;11.238;2022-11-20T00:08:55;60.17;;;17.25;;
63906;SDS011;50075;49.484;11.238;2022-11-20T00:11:22;40.55;;;13.60;;
63906;SDS011;50075;49.484;11.238;2022-11-20T00:13:49;43.97;;;14.02;;
63906;SDS011;50075;49.484;11.238;2022-11-20T00:16:19;43.15;;;13.30;;
63906;SDS011;50075;49.484;11.238;2022-11-20T00:18:46;38.50;;;11.98;;
63906;SDS011;50075;49.484;11.238;2022-11-20T00:21:13;46.00;;;14.25;;
63906;SDS011;50075;49.484;11.238;2022-11-20T00:23:46;42.25;;;12.88;;
63906;SDS011;50075;49.484;11.238;2022-11-20T00:26:12;45.63;;;13.88;;
63906;SDS011;50075;49.484;11.238;2022-11-20T00:28:39;40.42;;;12.55;;
63906;SDS011;50075;49.484;11.238;2022-11-20T00:31:07;43.88;;;13.88;;
63906;SDS011;50075;49.484;11.238;2022-11-20T00:33:35;43.00;;;13.82;;
63906;SDS011;50075;49.484;11.238;2022-11-20T00:36:01;36.78;;;12.85;;
63906;SDS011;50075;49.484;11.238;2022-11-20T00:38:34;40.40;;;13.45;;
63906;SDS011;50075;49.484;11.238;2022-11-20T00:41:01;38.58;;;12.95;;
63906;SDS011;50075;49.484;11.238;2022-11-20T00:43:28;43.08;;;12.90;;
63906;SDS011;50075;49.484;11.238;2022-11-20T00:46:00;45.03;;;14.70;;
63906;SDS011;50075;49.484;11.238;2022-11-20T00:48:30;40.72;;;12.75;;
63906;SDS011;50075;49.484;11.238;2022-11-20T00:50:56;44.70;;;15.35;;
63906;SDS011;50075;49.484;11.238;2022-11-20T00:53:21;36.20;;;12.40;;
63906;SDS011;50075;49.484;11.238;2022-11-20T00:55:54;45.90;;;15.10;;
63906;SDS011;50075;49.484;11.238;2022-11-20T00:58:24;45.35;;;14.50;;
63906;SDS011;50075;49.484;11.238;2022-11-20T01:00:53;34.88;;;11.65;;
63906;SDS011;50075;49.484;11.238;2022-11-20T01:03:18;35.97;;;13.63;;
63906;SDS011;50075;49.484;11.238;2022-11-20T01:05:44;38.15;;;12.20;;
63906;SDS011;50075;49.484;11.238;2022-11-20T01:08:09;40.67;;;13.48;;
63906;SDS011;50075;49.484;11.238;2022-11-20T01:10:35;36.38;;;11.82;;
63906;SDS011;50075;49.484;11.238;2022-11-20T01:13:01;48.35;;;14.00;;
63906;SDS011;50075;49.484;11.238;2022-11-20T01:15:44;42.30;;;13.57;;
63906;SDS011;50075;49.484;11.238;2022-11-20T01:18:10;35.60;;;11.80;;
63906;SDS011;50075;49.484;11.238;2022-11-20T01:20:35;37.00;;;11.75;;
63906;SDS011;50075;49.484;11.238;2022-11-20T01:23:01;38.63;;;12.35;;
63906;SDS011;50075;49.484;11.238;2022-11-20T01:25:27;35.95;;;11.75;;
63906;SDS011;50075;49.484;11.238;2022-11-20T01:27:53;38.78;;;12.43;;
63906;SDS011;50075;49.484;11.238;2022-11-20T01:30:18;30.33;;;11.02;;
63906;SDS011;50075;49.484;11.238;2022-11-20T01:32:43;41.03;;;11.57;;
63906;SDS011;50075;49.484;11.238;2022-11-20T01:35:09;35.00;;;10.93;;
63906;SDS011;50075;49.484;11.238;2022-11-20T01:37:35;38.35;;;12.50;;
63906;SDS011;50075;49.484;11.238;2022-11-20T01:40:00;45.17;;;12.95;;
63906;SDS011;50075;49.484;11.238;2022-11-20T01:42:26;38.08;;;11.15;;
63906;SDS011;50075;49.484;11.238;2022-11-20T01:48:20;40.53;;;11.63;;
63906;SDS011;50075;49.484;11.238;2022-11-20T01:50:47;36.67;;;11.90;;
63906;SDS011;50075;49.484;11.238;2022-11-20T01:53:14;39.08;;;12.32;;
63906;SDS011;50075;49.484;11.238;2022-11-20T01:55:45;31.55;;;11.27;;
63906;SDS011;50075;49.484;11.238;2022-11-20T01:58:14;37.10;;;10.63;;
63906;SDS011;50075;49.484;11.238;2022-11-20T02:00:41;30.00;;;9.32;;
63906;SDS011;50075;49.484;11.238;2022-11-20T02:03:09;29.77;;;10.13;;
63906;SDS011;50075;49.484;11.238;2022-11-20T02:05:39;36.55;;;11.00;;
63906;SDS011;50075;49.484;11.238;2022-11-20T02:08:10;34.42;;;11.82;;
63906;SDS011;50075;49.484;11.238;2022-11-20T02:10:36;41.60;;;12.65;;
63906;SDS011;50075;49.484;11.238;2022-11-20T02:13:02;39.72;;;13.00;;
63906;SDS011;50075;49.484;11.238;2022-11-20T02:15:46;37.83;;;11.90;;
63906;SDS011;50075;49.484;11.238;2022-11-20T02:18:14;43.47;;;12.27;;
63906;SDS011;50075;49.484;11.238;2022-11-20T02:20:42;35.45;;;10.38;;
63906;SDS011;50075;49.484;11.238;2022-11-20T02:25:37;42.60;;;12.93;;
63906;SDS011;50075;49.484;11.238;2022-11-20T02:28:05;36.90;;;12.95;;
63906;SDS011;50075;49.484;11.238;2022-11-20T02:30:31;35.38;;;11.73;;
63906;SDS011;50075;49.484;11.238;2022-11-20T02:32:57;40.08;;;11.82;;
63906;SDS011;50075;49.484;11.238;2022-11-20T02:37:48;39.05;;;11.85;;
63906;SDS011;50075;49.484;11.238;2022-11-20T02:40:18;42.42;;;12.88;;
63906;SDS011;50075;49.484;11.238;2022-11-20T02:42:43;34.10;;;12.35;;
63906;SDS011;50075;49.484;11.238;2022-11-20T02:45:09;41.38;;;12.65;;
63906;SDS011;50075;49.484;11.238;2022-11-20T02:47:35;41.25;;;13.10;;
63906;SDS011;50075;49.484;11.238;2022-11-20T02:50:00;45.80;;;13.52;;
63906;SDS011;50075;49.484;11.238;2022-11-20T02:52:26;38.40;;;12.15;;
63906;SDS011;50075;49.484;11.238;2022-11-20T02:54:51;39.65;;;12.82;;
63906;SDS011;50075;49.484;11.238;2022-11-20T02:57:17;39.88;;;13.57;;
63906;SDS011;50075;49.484;11.238;2022-11-20T02:59:42;39.55;;;12.65;;
63906;SDS011;50075;49.484;11.238;2022-11-20T03:02:08;47.00;;;13.68;;
63906;SDS011;50075;49.484;11.238;2022-11-20T03:04:33;35.42;;;12.43;;
63906;SDS011;50075;49.484;11.238;2022-11-20T03:06:58;42.15;;;12.63;;
63906;SDS011;50075;49.484;11.238;2022-11-20T03:09:24;48.30;;;13.35;;
63906;SDS011;50075;49.484;11.238;2022-11-20T03:11:49;25.80;;;8.55;;
63906;SDS011;50075;49.484;11.238;2022-11-20T03:14:14;52.85;;;15.27;;
63906;SDS011;50075;49.484;11.238;2022-11-20T03:16:40;38.95;;;11.30;;
63906;SDS011;50075;49.484;11.238;2022-11-20T03:19:05;39.42;;;12.27;;
63906;SDS011;50075;49.484;11.238;2022-11-20T03:21:32;54.42;;;14.20;;
63906;SDS011;50075;49.484;11.238;2022-11-20T03:23:58;55.35;;;13.65;;
63906;SDS011;50075;49.484;11.238;2022-11-20T03:26:25;52.72;;;14.15;;
63906;SDS011;50075;49.484;11.238;2022-11-20T03:28:53;37.53;;;12.68;;
63906;SDS011;50075;49.484;11.238;2022-11-20T03:31:21;47.55;;;14.52;;
63906;SDS011;50075;49.484;11.238;2022-11-20T03:33:49;47.20;;;13.55;;
63906;SDS011;50075;49.484;11.238;2022-11-20T03:36:16;43.83;;;13.45;;
63906;SDS011;50075;49.484;11.238;2022-11-20T03:38:43;53.30;;;13.90;;
63906;SDS011;50075;49.484;11.238;2022-11-20T03:41:10;43.20;;;12.55;;
63906;SDS011;50075;49.484;11.238;2022-11-20T03:43:37;48.75;;;13.13;;
63906;SDS011;50075;49.484;11.238;2022-11-20T03:46:03;50.65;;;14.55;;
63906;SDS011;50075;49.484;11.238;2022-11-20T03:48:29;41.33;;;12.30;;
63906;SDS011;50075;49.484;11.238;2022-11-20T03:53:34;50.53;;;14.32;;
63906;SDS011;50075;49.484;11.238;2022-11-20T03:55:59;51.35;;;13.93;;
63906;SDS011;50075;49.484;11.238;2022-11-20T03:58:24;47.38;;;14.18;;
63906;SDS011;50075;49.484;11.238;2022-11-20T04:00:50;60.92;;;14.93;;
63906;SDS011;50075;49.484;11.238;2022-11-20T04:03:15;58.45;;;15.00;;
63906;SDS011;50075;49.484;11.238;2022-11-20T04:05:40;62.05;;;14.52;;
63906;SDS011;50075;49.484;11.238;2022-11-20T04:08:06;62.47;;;15.23;;
63906;SDS011;50075;49.484;11.238;2022-11-20T04:10:31;34.47;;;9.85;;
63906;SDS011;50075;49.484;11.238;2022-11-20T04:12:56;57.00;;;15.55;;
63906;SDS011;50075;49.484;11.238;2022-11-20T04:15:22;66.65;;;14.77;;
63906;SDS011;50075;49.484;11.238;2022-11-20T04:17:47;48.28;;;14.13;;
63906;SDS011;50075;49.484;11.238;2022-11-20T04:20:12;60.42;;;15.45;;
63906;SDS011;50075;49.484;11.238;2022-11-20T04:22:38;61.95;;;14.20;;
63906;SDS011;50075;49.484;11.238;2022-11-20T04:25:03;61.85;;;16.05;;
63906;SDS011;50075;49.484;11.238;2022-11-20T04:27:30;49.00;;;13.40;;
63906;SDS011;50075;49.484;11.238;2022-11-20T04:29:55;61.20;;;15.35;;
63906;SDS011;50075;49.484;11.238;2022-11-20T04:32:21;66.07;;;14.80;;
63906;SDS011;50075;49.484;11.238;2022-11-20T04:34:46;48.22;;;13.60;;
63906;SDS011;50075;49.484;11.238;2022-11-20T04:37:11;46.75;;;13.88;;
63906;SDS011;50075;49.484;11.238;2022-11-20T04:39:37;58.88;;;14.68;;
63906;SDS011;50075;49.484;11.238;2022-11-20T04:42:02;58.75;;;14.98;;
63906;SDS011;50075;49.484;11.238;2022-11-20T04:44:46;59.25;;;15.27;;
63906;SDS011;50075;49.484;11.238;2022-11-20T04:47:11;58.40;;;14.35;;
63906;SDS011;50075;49.484;11.238;2022-11-20T04:49:37;50.88;;;13.82;;
63906;SDS011;50075;49.484;11.238;2022-11-20T04:52:02;43.65;;;13.50;;
63906;SDS011;50075;49.484;11.238;2022-11-20T04:54:27;51.28;;;13.02;;
63906;SDS011;50075;49.484;11.238;2022-11-20T04:56:53;56.95;;;14.57;;
63906;SDS011;50075;49.484;11.238;2022-11-20T04:59:18;45.95;;;13.45;;
63906;SDS011;50075;49.484;11.238;2022-11-20T05:01:44;51.28;;;13.23;;
63906;SDS011;50075;49.484;11.238;2022-11-20T05:04:09;49.97;;;12.70;;
63906;SDS011;50075;49.484;11.238;2022-11-20T05:06:34;51.92;;;13.82;;
63906;SDS011;50075;49.484;11.238;2022-11-20T05:08:59;78.85;;;15.05;;
63906;SDS011;50075;49.484;11.238;2022-11-20T05:11:25;61.08;;;13.80;;
63906;SDS011;50075;49.484;11.238;2022-11-20T05:13:54;53.28;;;13.23;;
63906;SDS011;50075;49.484;11.238;2022-11-20T05:16:23;60.92;;;14.18;;
63906;SDS011;50075;49.484;11.238;2022-11-20T05:18:49;59.50;;;14.93;;
63906;SDS011;50075;49.484;11.238;2022-11-20T05:21:15;64.43;;;14.02;;
63906;SDS011;50075;49.484;11.238;2022-11-20T05:23:42;54.05;;;13.13;;
63906;SDS011;50075;49.484;11.238;2022-11-20T05:26:12;53.55;;;13.20;;
63906;SDS011;50075;49.484;11.238;2022-11-20T05:28:39;42.00;;;12.15;;
63906;SDS011;50075;49.484;11.238;2022-11-20T05:31:05;76.80;;;16.63;;
63906;SDS011;50075;49.484;11.238;2022-11-20T05:33:30;62.90;;;13.57;;
63906;SDS011;50075;49.484;11.238;2022-11-20T05:35:59;78.97;;;15.25;;
63906;SDS011;50075;49.484;11.238;2022-11-20T05:38:24;53.83;;;13.77;;
63906;SDS011;50075;49.484;11.238;2022-11-20T05:40:50;93.32;;;15.88;;
63906;SDS011;50075;49.484;11.238;2022-11-20T05:43:15;67.13;;;14.85;;
63906;SDS011;50075;49.484;11.238;2022-11-20T05:45:40;71.25;;;15.40;;
63906;SDS011;50075;49.484;11.238;2022-11-20T05:48:06;55.80;;;14.95;;
63906;SDS011;50075;49.484;11.238;2022-11-20T05:50:31;59.58;;;14.93;;
63906;SDS011;50075;49.484;11.238;2022-11-20T05:52:59;61.10;;;14.52;;
63906;SDS011;50075;49.484;11.238;2022-11-20T05:55:25;45.38;;;12.15;;
63906;SDS011;50075;49.484;11.238;2022-11-20T05:57:54;58.20;;;13.45;;
63906;SDS011;50075;49.484;11.238;2022-11-20T06:00:20;72.63;;;15.63;;
63906;SDS011;50075;49.484;11.238;2022-11-20T06:02:45;55.80;;;14.32;;
63906;SDS011;50075;49.484;11.238;2022-11-20T06:05:10;51.03;;;12.43;;
63906;SDS011;50075;49.484;11.238;2022-11-20T06:07:36;59.67;;;15.13;;
63906;SDS011;50075;49.484;11.238;2022-11-20T06:10:01;62.13;;;15.70;;
63906;SDS011;50075;49.484;11.238;2022-11-20T06:12:26;60.58;;;14.07;;
63906;SDS011;50075;49.484;11.238;2022-11-20T06:14:52;59.53;;;14.50;;
63906;SDS011;50075;49.484;11.238;2022-11-20T06:17:17;55.08;;;14.02;;
63906;SDS011;50075;49.484;11.238;2022-11-20T06:19:42;44.42;;;13.00;;
63906;SDS011;50075;49.484;11.238;2022-11-20T06:22:08;55.80;;;13.98;;
63906;SDS011;50075;49.484;11.238;2022-11-20T06:24:33;67.47;;;15.77;;
63906;SDS011;50075;49.484;11.238;2022-11-20T06:26:58;93.13;;;15.82;;
63906;SDS011;50075;49.484;11.238;2022-11-20T06:29:24;60.97;;;14.48;;
63906;SDS011;50075;49.484;11.238;2022-11-20T06:31:49;56.10;;;13.82;;
63906;SDS011;50075;49.484;11.238;2022-11-20T06:34:14;57.75;;;14.55;;
63906;SDS011;50075;49.484;11.238;2022-11-20T06:36:39;63.85;;;14.02;;
63906;SDS011;50075;49.484;11.238;2022-11-20T06:39:05;56.58;;;14.35;;
63906;SDS011;50075;49.484;11.238;2022-11-20T06:41:30;47.95;;;12.23;;
63906;SDS011;50075;49.484;11.238;2022-11-20T06:43:56;54.22;;;13.52;;
63906;SDS011;50075;49.484;11.238;2022-11-20T06:46:21;61.92;;;14.02;;
63906;SDS011;50075;49.484;11.238;2022-11-20T06:48:47;57.47;;;13.60;;
63906;SDS011;50075;49.484;11.238;2022-11-20T06:51:13;60.20;;;14.23;;
63906;SDS011;50075;49.484;11.238;2022-11-20T06:53:39;53.28;;;12.52;;
63906;SDS011;50075;49.484;11.238;2022-11-20T06:56:05;72.03;;;16.65;;
63906;SDS011;50075;49.484;11.238;2022-11-20T06:58:32;103.75;;;15.93;;
63906;SDS011;50075;49.484;11.238;2022-11-20T07:00:58;65.30;;;14.30;;
63906;SDS011;50075;49.484;11.238;2022-11-20T07:03:25;52.22;;;13.57;;
63906;SDS011;50075;49.484;11.238;2022-11-20T07:05:50;61.05;;;12.98;;
63906;SDS011;50075;49.484;11.238;2022-11-20T07:08:15;52.80;;;12.85;;
63906;SDS011;50075;49.484;11.238;2022-11-20T07:10:41;62.60;;;13.75;;
63906;SDS011;50075;49.484;11.238;2022-11-20T07:13:06;52.33;;;13.55;;
63906;SDS011;50075;49.484;11.238;2022-11-20T07:15:32;47.63;;;13.05;;
63906;SDS011;50075;49.484;11.238;2022-11-20T07:18:00;62.95;;;14.00;;
63906;SDS011;50075;49.484;11.238;2022-11-20T07:20:26;51.05;;;13.73;;
63906;SDS011;50075;49.484;11.238;2022-11-20T07:22:55;53.70;;;13.80;;
63906;SDS011;50075;49.484;11.238;2022-11-20T07:25:22;52.53;;;14.23;;
63906;SDS011;50075;49.484;11.238;2022-11-20T07:27:47;52.38;;;12.95;;
63906;SDS011;50075;49.484;11.238;2022-11-20T07:30:13;51.08;;;14.65;;
63906;SDS011;50075;49.484;11.238;2022-11-20T07:32:40;56.28;;;15.05;;
63906;SDS011;50075;49.484;11.238;2022-11-20T07:35:05;57.72;;;14.68;;
63906;SDS011;50075;49.484;11.238;2022-11-20T07:37:33;44.25;;;12.43;;
63906;SDS011;50075;49.484;11.238;2022-11-20T07:39:59;43.90;;;12.48;;
63906;SDS011;50075;49.484;11.238;2022-11-20T07:42:24;65.28;;;14.70;;
63906;SDS011;50075;49.484;11.238;2022-11-20T07:44:49;68.97;;;15.60;;
63906;SDS011;50075;49.484;11.238;2022-11-20T07:47:15;55.67;;;13.75;;
63906;SDS011;50075;49.484;11.238;2022-11-20T07:49:40;58.75;;;14.65;;
63906;SDS011;50075;49.484;11.238;2022-11-20T07:52:05;59.85;;;14.38;;
63906;SDS011;50075;49.484;11.238;2022-11-20T07:54:31;20.88;;;6.60;;
63906;SDS011;50075;49.484;11.238;2022-11-20T07:56:56;35.88;;;11.93;;
63906;SDS011;50075;49.484;11.238;2022-11-20T07:59:22;40.42;;;12.45;;
63906;SDS011;50075;49.484;11.238;2022-11-20T08:01:47;53.42;;;13.40;;
63906;SDS011;50075;49.484;11.238;2022-11-20T08:04:12;35.42;;;10.63;;
63906;SDS011;50075;49.484;11.238;2022-11-20T08:06:38;32.55;;;9.77;;
63906;SDS011;50075;49.484;11.238;2022-11-20T08:09:04;40.97;;;12.43;;
63906;SDS011;50075;49.484;11.238;2022-11-20T08:11:29;36.60;;;10.73;;
63906;SDS011;50075;49.484;11.238;2022-11-20T08:14:13;39.10;;;10.38;;
63906;SDS011;50075;49.484;11.238;2022-11-20T08:16:39;45.95;;;13.63;;
63906;SDS011;50075;49.484;11.238;2022-11-20T08:19:04;42.63;;;13.40;;
63906;SDS011;50075;49.484;11.238;2022-11-20T08:21:30;34.95;;;11.43;;
63906;SDS011;50075;49.484;11.238;2022-11-20T08:23:56;48.80;;;14.77;;
63906;SDS011;50075;49.484;11.238;2022-11-20T08:26:22;48.55;;;14.93;;
63906;SDS011;50075;49.484;11.238;2022-11-20T08:28:48;51.45;;;13.90;;
63906;SDS011;50075;49.484;11.238;2022-11-20T08:31:14;45.28;;;12.98;;
63906;SDS011;50075;49.484;11.238;2022-11-20T08:33:39;48.42;;;14.38;;
63906;SDS011;50075;49.484;11.238;2022-11-20T08:36:05;41.58;;;11.95;;
63906;SDS011;50075;49.484;11.238;2022-11-20T08:38:31;49.13;;;13.52;;
63906;SDS011;50075;49.484;11.238;2022-11-20T08:40:57;35.58;;;11.82;;
63906;SDS011;50075;49.484;11.238;2022-11-20T08:43:41;33.63;;;9.43;;
63906;SDS011;50075;49.484;11.238;2022-11-20T08:46:07;28.83;;;8.18;;
63906;SDS011;50075;49.484;11.238;2022-11-20T08:48:32;28.83;;;8.45;;
63906;SDS011;50075;49.484;11.238;2022-11-20T08:50:58;24.92;;;7.00;;
63906;SDS011;50075;49.484;11.238;2022-11-20T08:53:24;29.27;;;8.43;;
63906;SDS011;50075;49.484;11.238;2022-11-20T08:55:50;19.35;;;5.75;;
63906;SDS011;50075;49.484;11.238;2022-11-20T08:58:15;23.70;;;6.28;;
63906;SDS011;50075;49.484;11.238;2022-11-20T09:00:40;28.08;;;8.32;;
63906;SDS011;50075;49.484;11.238;2022-11-20T09:03:06;29.58;;;8.68;;
63906;SDS011;50075;49.484;11.238;2022-11-20T09:05:31;26.05;;;7.60;;
63906;SDS011;50075;49.484;11.238;2022-11-20T09:07:57;27.48;;;7.45;;
63906;SDS011;50075;49.484;11.238;2022-11-20T09:10:23;22.17;;;7.47;;
63906;SDS011;50075;49.484;11.238;2022-11-20T09:12:48;27.67;;;8.77;;
63906;SDS011;50075;49.484;11.238;2022-11-20T09:15:14;30.17;;;8.60;;
63906;SDS011;50075;49.484;11.238;2022-11-20T09:17:40;37.45;;;10.48;;
63906;SDS011;50075;49.484;11.238;2022-11-20T09:20:05;37.63;;;11.52;;
63906;SDS011;50075;49.484;11.238;2022-11-20T09:22:31;47.63;;;13.07;;
63906;SDS011;50075;49.484;11.238;2022-11-20T09:24:56;41.50;;;11.68;;
63906;SDS011;50075;49.484;11.238;2022-11-20T09:27:21;34.72;;;11.82;;
63906;SDS011;50075;49.484;11.238;2022-11-20T09:29:47;41.95;;;12.25;;
63906;SDS011;50075;49.484;11.238;2022-11-20T09:32:12;36.65;;;11.77;;
63906;SDS011;50075;49.484;11.238;2022-11-20T09:34:37;24.77;;;8.05;;
63906;SDS011;50075;49.484;11.238;2022-11-20T09:37:03;22.25;;;6.75;;
63906;SDS011;50075;49.484;11.238;2022-11-20T09:39:28;30.45;;;9.07;;
63906;SDS011;50075;49.484;11.238;2022-11-20T09:42:01;36.65;;;6.70;;
63906;SDS011;50075;49.484;11.238;2022-11-20T09:45:23;10.45;;;2.03;;
63906;SDS011;50075;49.484;11.238;2022-11-20T09:50:19;11.18;;;3.28;;
63906;SDS011;50075;49.484;11.238;2022-11-20T09:53:21;15.82;;;3.60;;
63906;SDS011;50075;49.484;11.238;2022-11-20T09:56:01;14.38;;;2.75;;
63906;SDS011;50075;49.484;11.238;2022-11-20T09:58:37;9.55;;;2.72;;
63906;SDS011;50075;49.484;11.238;2022-11-20T10:01:10;10.68;;;2.03;;
63906;SDS011;50075;49.484;11.238;2022-11-20T10:03:48;11.20;;;2.13;;
63906;SDS011;50075;49.484;11.238;2022-11-20T10:06:15;13.40;;;2.75;;
63906;SDS011;50075;49.484;11.238;2022-11-20T10:08:51;9.35;;;1.70;;
63906;SDS011;50075;49.484;11.238;2022-11-20T10:17:26;17.77;;;3.08;;
63906;SDS011;50075;49.484;11.238;2022-11-20T10:31:11;14.23;;;2.05;;
63906;SDS011;50075;49.484;11.238;2022-11-20T10:33:42;16.85;;;2.70;;
63906;SDS011;50075;49.484;11.238;2022-11-20T10:36:16;15.80;;;2.30;;
63906;SDS011;50075;49.484;11.238;2022-11-20T10:38:48;17.80;;;3.75;;
63906;SDS011;50075;49.484;11.238;2022-11-20T10:41:19;7.82;;;1.52;;
63906;SDS011;50075;49.484;11.238;2022-11-20T10:43:59;14.90;;;2.20;;
63906;SDS011;50075;49.484;11.238;2022-11-20T10:46:32;13.65;;;2.00;;
63906;SDS011;50075;49.484;11.238;2022-11-20T10:49:04;13.38;;;2.88;;
63906;SDS011;50075;49.484;11.238;2022-11-20T10:51:37;10.45;;;1.83;;
63906;SDS011;50075;49.484;11.238;2022-11-20T10:54:53;9.60;;;1.88;;
63906;SDS011;50075;49.484;11.238;2022-11-20T11:00:01;15.70;;;2.58;;
63906;SDS011;50075;49.484;11.238;2022-11-20T11:02:43;15.35;;;3.25;;
63906;SDS011;50075;49.484;11.238;2022-11-20T11:08:04;22.55;;;6.05;;
63906;SDS011;50075;49.484;11.238;2022-11-20T11:10:44;17.20;;;3.80;;
63906;SDS011;50075;49.484;11.238;2022-11-20T11:13:23;17.50;;;5.15;;
63906;SDS011;50075;49.484;11.238;2022-11-20T11:15:51;11.27;;;3.47;;
63906;SDS011;50075;49.484;11.238;2022-11-20T11:18:27;15.73;;;3.83;;
63906;SDS011;50075;49.484;11.238;2022-11-20T11:20:55;11.05;;;3.42;;
63906;SDS011;50075;49.484;11.238;2022-11-20T11:23:38;15.43;;;4.18;;
63906;SDS011;50075;49.484;11.238;2022-11-20T11:26:06;19.23;;;4.50;;
63906;SDS011;50075;49.484;11.238;2022-11-20T11:28:57;14.68;;;3.28;;
63906;SDS011;50075;49.484;11.238;2022-11-20T11:31:27;12.40;;;2.05;;
63906;SDS011;50075;49.484;11.238;2022-11-20T11:34:07;9.50;;;1.70;;
63906;SDS011;50075;49.484;11.238;2022-11-20T11:36:37;14.18;;;2.08;;
63906;SDS011;50075;49.484;11.238;2022-11-20T11:39:03;13.00;;;2.20;;
63906;SDS011;50075;49.484;11.238;2022-11-20T11:41:32;14.07;;;2.20;;
63906;SDS011;50075;49.484;11.238;2022-11-20T11:47:05;9.77;;;1.73;;
63906;SDS011;50075;49.484;11.238;2022-11-20T11:49:36;14.17;;;2.10;;
63906;SDS011;50075;49.484;11.238;2022-11-20T12:10:33;13.60;;;2.03;;
63906;SDS011;50075;49.484;11.238;2022-11-20T12:13:19;14.40;;;2.13;;
63906;SDS011;50075;49.484;11.238;2022-11-20T12:15:46;16.75;;;2.50;;
63906;SDS011;50075;49.484;11.238;2022-11-20T12:18:17;11.90;;;1.92;;
63906;SDS011;50075;49.484;11.238;2022-11-20T12:20:52;13.52;;;2.75;;
63906;SDS011;50075;49.484;11.238;2022-11-20T12:29:33;10.70;;;1.90;;
63906;SDS011;50075;49.484;11.238;2022-11-20T12:32:23;14.65;;;2.20;;
63906;SDS011;50075;49.484;11.238;2022-11-20T12:37:35;12.05;;;2.05;;
63906;SDS011;50075;49.484;11.238;2022-11-20T12:51:20;13.88;;;2.15;;
63906;SDS011;50075;49.484;11.238;2022-11-20T12:53:54;10.45;;;2.42;;
63906;SDS011;50075;49.484;11.238;2022-11-20T12:59:10;12.63;;;2.75;;
63906;SDS011;50075;49.484;11.238;2022-11-20T13:07:12;12.85;;;2.25;;
63906;SDS011;50075;49.484;11.238;2022-11-20T13:09:46;13.73;;;2.83;;
63906;SDS011;50075;49.484;11.238;2022-11-20T13:12:20;13.82;;;2.90;;
63906;SDS011;50075;49.484;11.238;2022-11-20T13:18:00;13.55;;;2.63;;
63906;SDS011;50075;49.484;11.238;2022-11-20T13:20:27;13.68;;;2.92;;
63906;SDS011;50075;49.484;11.238;2022-11-20T13:22:55;12.52;;;2.67;;
63906;SDS011;50075;49.484;11.238;2022-11-20T13:25:30;17.85;;;4.03;;
63906;SDS011;50075;49.484;11.238;2022-11-20T13:27:58;12.93;;;2.90;;
63906;SDS011;50075;49.484;11.238;2022-11-20T13:30:28;11.98;;;2.65;;
63906;SDS011;50075;49.484;11.238;2022-11-20T13:32:56;9.82;;;2.33;;
63906;SDS011;50075;49.484;11.238;2022-11-20T13:38:09;10.15;;;2.40;;
63906;SDS011;50075;49.484;11.238;2022-11-20T13:40:38;15.50;;;3.35;;
63906;SDS011;50075;49.484;11.238;2022-11-20T13:43:44;17.35;;;3.67;;
63906;SDS011;50075;49.484;11.238;2022-11-20T13:46:12;16.10;;;3.47;;
63906;SDS011;50075;49.484;11.238;2022-11-20T13:48:39;16.60;;;2.97;;
63906;SDS011;50075;49.484;11.238;2022-11-20T13:51:28;11.68;;;2.97;;
63906;SDS011;50075;49.484;11.238;2022-11-20T13:56:39;11.27;;;2.28;;
63906;SDS011;50075;49.484;11.238;2022-11-20T13:59:23;14.45;;;3.10;;
63906;SDS011;50075;49.484;11.238;2022-11-20T14:02:01;19.48;;;4.50;;
63906;SDS011;50075;49.484;11.238;2022-11-20T14:04:32;15.10;;;4.05;;
63906;SDS011;50075;49.484;11.238;2022-11-20T14:07:00;27.15;;;7.43;;
63906;SDS011;50075;49.484;11.238;2022-11-20T14:11:53;24.90;;;6.65;;
63906;SDS011;50075;49.484;11.238;2022-11-20T14:14:19;21.42;;;6.93;;
63906;SDS011;50075;49.484;11.238;2022-11-20T14:16:47;27.05;;;6.90;;
63906;SDS011;50075;49.484;11.238;2022-11-20T14:21:45;19.55;;;5.35;;
63906;SDS011;50075;49.484;11.238;2022-11-20T14:24:11;24.25;;;6.95;;
63906;SDS011;50075;49.484;11.238;2022-11-20T14:26:38;28.77;;;7.93;;
63906;SDS011;50075;49.484;11.238;2022-11-20T14:29:21;25.77;;;8.88;;
63906;SDS011;50075;49.484;11.238;2022-11-20T14:31:52;22.25;;;6.55;;
63906;SDS011;50075;49.484;11.238;2022-11-20T14:34:21;24.10;;;6.63;;
63906;SDS011;50075;49.484;11.238;2022-11-20T14:36:49;19.08;;;7.20;;
63906;SDS011;50075;49.484;11.238;2022-11-20T14:39:22;29.00;;;7.95;;
63906;SDS011;50075;49.484;11.238;2022-11-20T14:41:53;15.30;;;6.13;;
63906;SDS011;50075;49.484;11.238;2022-11-20T14:44:26;22.23;;;6.13;;
63906;SDS011;50075;49.484;11.238;2022-11-20T14:46:54;19.65;;;5.97;;
63906;SDS011;50075;49.484;11.238;2022-11-20T14:49:21;21.10;;;6.15;;
63906;SDS011;50075;49.484;11.238;2022-11-20T14:51:46;22.17;;;6.38;;
63906;SDS011;50075;49.484;11.238;2022-11-20T14:54:23;20.02;;;5.70;;
63906;SDS011;50075;49.484;11.238;2022-11-20T14:56:57;20.48;;;5.95;;
63906;SDS011;50075;49.484;11.238;2022-11-20T14:59:25;19.15;;;5.45;;
63906;SDS011;50075;49.484;11.238;2022-11-20T15:02:00;18.50;;;5.85;;
63906;SDS011;50075;49.484;11.238;2022-11-20T15:04:28;21.13;;;5.53;;
63906;SDS011;50075;49.484;11.238;2022-11-20T15:06:54;18.50;;;5.63;;
63906;SDS011;50075;49.484;11.238;2022-11-20T15:09:21;19.67;;;6.15;;
63906;SDS011;50075;49.484;11.238;2022-11-20T15:11:57;25.88;;;6.47;;
63906;SDS011;50075;49.484;11.238;2022-11-20T15:14:25;19.17;;;6.05;;
63906;SDS011;50075;49.484;11.238;2022-11-20T15:16:52;25.45;;;7.40;;
63906;SDS011;50075;49.484;11.238;2022-11-20T15:19:22;21.67;;;6.40;;
63906;SDS011;50075;49.484;11.238;2022-11-20T15:21:49;26.60;;;7.57;;
63906;SDS011;50075;49.484;11.238;2022-11-20T15:24:15;23.42;;;7.07;;
63906;SDS011;50075;49.484;11.238;2022-11-20T15:26:41;25.00;;;7.13;;
63906;SDS011;50075;49.484;11.238;2022-11-20T15:29:09;21.98;;;6.72;;
63906;SDS011;50075;49.484;11.238;2022-11-20T15:31:36;22.88;;;6.97;;
63906;SDS011;50075;49.484;11.238;2022-11-20T15:34:02;23.55;;;6.43;;
63906;SDS011;50075;49.484;11.238;2022-11-20T15:36:31;22.95;;;6.38;;
63906;SDS011;50075;49.484;11.238;2022-11-20T15:38:56;22.92;;;7.05;;
63906;SDS011;50075;49.484;11.238;2022-11-20T15:41:21;19.83;;;6.38;;
63906;SDS011;50075;49.484;11.238;2022-11-20T15:43:47;23.85;;;7.05;;
63906;SDS011;50075;49.484;11.238;2022-11-20T15:46:15;30.98;;;7.97;;
63906;SDS011;50075;49.484;11.238;2022-11-20T15:53:39;22.00;;;6.70;;
63906;SDS011;50075;49.484;11.238;2022-11-20T15:56:05;17.02;;;5.40;;
63906;SDS011;50075;49.484;11.238;2022-11-20T15:58:31;19.33;;;6.55;;
63906;SDS011;50075;49.484;11.238;2022-11-20T16:00:56;22.10;;;6.80;;
63906;SDS011;50075;49.484;11.238;2022-11-20T16:03:22;25.38;;;7.57;;
63906;SDS011;50075;49.484;11.238;2022-11-20T16:05:48;23.55;;;7.25;;